sensor_id;sensor_type;location;lat;lon;timestamp;temperature;humidity
23719;DHT22;43322;52.230;5.702;2024-01-10T00:01:37;-4.10;99.90
23719;DHT22;43322;52.230;5.702;2024-01-10T00:04:05;-4.10;99.90
23719;DHT22;43322;52.230;5.702;2024-01-10T00:06:31;-4.10;99.90
23719;DHT22;43322;52.230;5.702;2024-01-10T00:08:58;-4.20;99.90
23719;DHT22;43322;52.230;5.702;2024-01-10T00:11:25;-4.10;99.90
23719;DHT22;43322;52.230;5.702;2024-01-10T00:13:52;-4.20;99.90
23719;DHT22;43322;52.230;5.702;2024-01-10T00:16:25;-4.20;99.90
23719;DHT22;43322;52.230;5.702;2024-01-10T00:18:52;-4.20;99.90
23719;DHT22;43322;52.230;5.702;2024-01-10T00:21:20;-4.20;99.90
23719;DHT22;43322;52.230;5.702;2024-01-10T00:23:47;-4.20;99.90
23719;DHT22;43322;52.230;5.702;2024-01-10T00:26:14;-4.10;99.90
23719;DHT22;43322;52.230;5.702;2024-01-10T00:28:41;-4.10;99.90
23719;DHT22;43322;52.230;5.702;2024-01-10T00:31:07;-4.20;99.90
23719;DHT22;43322;52.230;5.702;2024-01-10T00:33:34;-4.30;99.90
23719;DHT22;43322;52.230;5.702;2024-01-10T00:36:01;-4.20;99.90
23719;DHT22;43322;52.230;5.702;2024-01-10T00:38:29;-4.30;99.90
23719;DHT22;43322;52.230;5.702;2024-01-10T00:40:56;-4.30;99.90
23719;DHT22;43322;52.230;5.702;2024-01-10T00:43:23;-4.30;99.90
23719;DHT22;43322;52.230;5.702;2024-01-10T00:45:50;-4.30;99.90
23719;DHT22;43322;52.230;5.702;2024-01-10T00:48:17;-4.30;99.90
23719;DHT22;43322;52.230;5.702;2024-01-10T00:50:43;-4.30;99.90
23719;DHT22;43322;52.230;5.702;2024-01-10T00:53:11;-4.30;99.90
23719;DHT22;43322;52.230;5.702;2024-01-10T00:55:39;-4.30;99.90
23719;DHT22;43322;52.230;5.702;2024-01-10T00:58:05;-4.30;99.90
23719;DHT22;43322;52.230;5.702;2024-01-10T01:00:32;-4.30;99.90
23719;DHT22;43322;52.230;5.702;2024-01-10T01:02:59;-4.40;99.90
23719;DHT22;43322;52.230;5.702;2024-01-10T01:05:26;-4.30;99.90
23719;DHT22;43322;52.230;5.702;2024-01-10T01:07:53;-4.30;99.90
23719;DHT22;43322;52.230;5.702;2024-01-10T01:10:20;-4.40;99.90
23719;DHT22;43322;52.230;5.702;2024-01-10T01:12:48;-4.40;99.90
23719;DHT22;43322;52.230;5.702;2024-01-10T01:15:15;-4.40;99.90
23719;DHT22;43322;52.230;5.702;2024-01-10T01:17:42;-4.40;99.90
23719;DHT22;43322;52.230;5.702;2024-01-10T01:20:09;-4.40;99.90
23719;DHT22;43322;52.230;5.702;2024-01-10T01:22:35;-4.40;99.90
23719;DHT22;43322;52.230;5.702;2024-01-10T01:25:03;-4.40;99.90
23719;DHT22;43322;52.230;5.702;2024-01-10T01:27:29;-4.40;99.90
23719;DHT22;43322;52.230;5.702;2024-01-10T01:29:58;-4.50;99.90
23719;DHT22;43322;52.230;5.702;2024-01-10T01:32:25;-4.50;99.90
23719;DHT22;43322;52.230;5.702;2024-01-10T01:34:51;-4.50;99.90
23719;DHT22;43322;52.230;5.702;2024-01-10T01:37:18;-4.50;99.90
23719;DHT22;43322;52.230;5.702;2024-01-10T01:39:45;-4.50;99.90
23719;DHT22;43322;52.230;5.702;2024-01-10T01:42:12;-4.40;99.90
23719;DHT22;43322;52.230;5.702;2024-01-10T01:44:38;-4.50;99.90
23719;DHT22;43322;52.230;5.702;2024-01-10T01:47:07;-4.50;99.90
23719;DHT22;43322;52.230;5.702;2024-01-10T01:49:33;-4.60;99.90
23719;DHT22;43322;52.230;5.702;2024-01-10T01:52:00;-4.60;99.90
23719;DHT22;43322;52.230;5.702;2024-01-10T01:54:28;-4.60;99.90
23719;DHT22;43322;52.230;5.702;2024-01-10T01:56:55;-4.60;99.90
23719;DHT22;43322;52.230;5.702;2024-01-10T01:59:23;-4.70;99.90
23719;DHT22;43322;52.230;5.702;2024-01-10T02:04:20;-4.70;99.90
23719;DHT22;43322;52.230;5.702;2024-01-10T02:06:46;-5.10;99.90
23719;DHT22;43322;52.230;5.702;2024-01-10T02:09:13;-4.70;99.90
23719;DHT22;43322;52.230;5.702;2024-01-10T02:11:40;-4.70;99.90
23719;DHT22;43322;52.230;5.702;2024-01-10T02:14:07;-4.70;99.90
23719;DHT22;43322;52.230;5.702;2024-01-10T02:16:34;-4.70;99.90
23719;DHT22;43322;52.230;5.702;2024-01-10T02:19:01;-4.70;99.90
23719;DHT22;43322;52.230;5.702;2024-01-10T02:21:29;-4.70;99.90
23719;DHT22;43322;52.230;5.702;2024-01-10T02:23:56;-4.60;99.90
23719;DHT22;43322;52.230;5.702;2024-01-10T02:26:24;-4.70;99.90
23719;DHT22;43322;52.230;5.702;2024-01-10T02:28:52;-4.80;99.90
23719;DHT22;43322;52.230;5.702;2024-01-10T02:31:19;-4.80;99.90
23719;DHT22;43322;52.230;5.702;2024-01-10T02:33:46;-4.70;99.90
23719;DHT22;43322;52.230;5.702;2024-01-10T02:36:12;-4.80;99.90
23719;DHT22;43322;52.230;5.702;2024-01-10T02:38:39;-4.80;99.90
23719;DHT22;43322;52.230;5.702;2024-01-10T02:41:06;-4.90;99.90
23719;DHT22;43322;52.230;5.702;2024-01-10T02:43:34;-4.80;99.90
23719;DHT22;43322;52.230;5.702;2024-01-10T02:46:01;-4.90;99.90
23719;DHT22;43322;52.230;5.702;2024-01-10T02:48:27;-4.90;99.90
23719;DHT22;43322;52.230;5.702;2024-01-10T02:50:54;-4.90;99.90
23719;DHT22;43322;52.230;5.702;2024-01-10T02:53:21;-4.90;99.90
23719;DHT22;43322;52.230;5.702;2024-01-10T02:55:48;-4.90;99.90
23719;DHT22;43322;52.230;5.702;2024-01-10T02:58:15;-4.90;99.90
23719;DHT22;43322;52.230;5.702;2024-01-10T03:00:43;-4.90;99.90
23719;DHT22;43322;52.230;5.702;2024-01-10T03:03:10;-4.90;99.90
23719;DHT22;43322;52.230;5.702;2024-01-10T03:05:37;-5.00;99.90
23719;DHT22;43322;52.230;5.702;2024-01-10T03:08:05;-5.00;99.90
23719;DHT22;43322;52.230;5.702;2024-01-10T03:10:32;-4.90;99.90
23719;DHT22;43322;52.230;5.702;2024-01-10T03:12:59;-4.90;99.90
23719;DHT22;43322;52.230;5.702;2024-01-10T03:15:25;-5.00;99.90
23719;DHT22;43322;52.230;5.702;2024-01-10T03:17:54;-5.00;99.90
23719;DHT22;43322;52.230;5.702;2024-01-10T03:20:20;-5.00;99.90
23719;DHT22;43322;52.230;5.702;2024-01-10T03:22:47;-5.00;99.90
23719;DHT22;43322;52.230;5.702;2024-01-10T03:25:14;-5.00;99.90
23719;DHT22;43322;52.230;5.702;2024-01-10T03:27:41;-5.00;99.90
23719;DHT22;43322;52.230;5.702;2024-01-10T03:30:08;-5.00;99.90
23719;DHT22;43322;52.230;5.702;2024-01-10T03:32:35;-5.00;99.90
23719;DHT22;43322;52.230;5.702;2024-01-10T03:35:04;-5.10;99.90
23719;DHT22;43322;52.230;5.702;2024-01-10T03:37:31;-5.00;99.90
23719;DHT22;43322;52.230;5.702;2024-01-10T03:39:58;-5.00;99.90
23719;DHT22;43322;52.230;5.702;2024-01-10T03:42:25;-5.00;99.90
23719;DHT22;43322;52.230;5.702;2024-01-10T03:44:52;-5.00;99.90
23719;DHT22;43322;52.230;5.702;2024-01-10T03:47:19;-5.00;99.90
23719;DHT22;43322;52.230;5.702;2024-01-10T03:49:45;-5.00;99.90
23719;DHT22;43322;52.230;5.702;2024-01-10T03:52:13;-5.00;99.90
23719;DHT22;43322;52.230;5.702;2024-01-10T03:54:41;-5.10;99.90
23719;DHT22;43322;52.230;5.702;2024-01-10T03:57:07;-5.10;99.90
23719;DHT22;43322;52.230;5.702;2024-01-10T03:59:34;-5.10;99.90
23719;DHT22;43322;52.230;5.702;2024-01-10T04:02:01;-5.20;99.90
23719;DHT22;43322;52.230;5.702;2024-01-10T04:04:28;-5.20;99.90
23719;DHT22;43322;52.230;5.702;2024-01-10T04:06:54;-5.20;99.90
23719;DHT22;43322;52.230;5.702;2024-01-10T04:09:23;-5.20;99.90
23719;DHT22;43322;52.230;5.702;2024-01-10T04:11:49;-5.20;99.90
23719;DHT22;43322;52.230;5.702;2024-01-10T04:14:16;-5.20;99.90
23719;DHT22;43322;52.230;5.702;2024-01-10T04:16:43;-5.20;99.90
23719;DHT22;43322;52.230;5.702;2024-01-10T04:19:10;-5.20;99.90
23719;DHT22;43322;52.230;5.702;2024-01-10T04:21:37;-5.20;99.90
23719;DHT22;43322;52.230;5.702;2024-01-10T04:24:04;-5.30;99.90
23719;DHT22;43322;52.230;5.702;2024-01-10T04:26:32;-5.30;99.90
23719;DHT22;43322;52.230;5.702;2024-01-10T04:28:59;-5.30;99.90
23719;DHT22;43322;52.230;5.702;2024-01-10T04:31:25;-5.30;99.90
23719;DHT22;43322;52.230;5.702;2024-01-10T04:33:52;-5.30;99.90
23719;DHT22;43322;52.230;5.702;2024-01-10T04:36:19;-5.30;99.90
23719;DHT22;43322;52.230;5.702;2024-01-10T04:38:46;-5.30;99.90
23719;DHT22;43322;52.230;5.702;2024-01-10T04:41:13;-5.20;99.90
23719;DHT22;43322;52.230;5.702;2024-01-10T04:43:41;-5.20;99.90
23719;DHT22;43322;52.230;5.702;2024-01-10T04:46:07;-5.20;99.90
23719;DHT22;43322;52.230;5.702;2024-01-10T04:48:35;-5.20;99.90
23719;DHT22;43322;52.230;5.702;2024-01-10T04:51:03;-5.20;99.90
23719;DHT22;43322;52.230;5.702;2024-01-10T04:53:30;-5.30;99.90
23719;DHT22;43322;52.230;5.702;2024-01-10T04:55:56;-5.30;99.90
23719;DHT22;43322;52.230;5.702;2024-01-10T04:58:23;-5.30;99.90
23719;DHT22;43322;52.230;5.702;2024-01-10T05:00:51;-5.30;99.90
23719;DHT22;43322;52.230;5.702;2024-01-10T05:03:18;-5.30;99.90
23719;DHT22;43322;52.230;5.702;2024-01-10T05:05:45;-5.30;99.90
23719;DHT22;43322;52.230;5.702;2024-01-10T05:08:12;-5.30;99.90
23719;DHT22;43322;52.230;5.702;2024-01-10T05:10:39;-5.30;99.90
23719;DHT22;43322;52.230;5.702;2024-01-10T05:13:05;-5.30;99.90
23719;DHT22;43322;52.230;5.702;2024-01-10T05:15:32;-5.30;99.90
23719;DHT22;43322;52.230;5.702;2024-01-10T05:18:00;-5.30;99.90
23719;DHT22;43322;52.230;5.702;2024-01-10T05:20:28;-5.20;99.90
23719;DHT22;43322;52.230;5.702;2024-01-10T05:22:55;-5.20;99.90
23719;DHT22;43322;52.230;5.702;2024-01-10T05:25:24;-5.30;99.90
23719;DHT22;43322;52.230;5.702;2024-01-10T05:27:50;-5.30;99.90
23719;DHT22;43322;52.230;5.702;2024-01-10T05:30:17;-5.30;99.90
23719;DHT22;43322;52.230;5.702;2024-01-10T05:32:44;-5.30;99.90
23719;DHT22;43322;52.230;5.702;2024-01-10T05:35:12;-5.30;99.90
23719;DHT22;43322;52.230;5.702;2024-01-10T05:37:39;-5.10;99.90
23719;DHT22;43322;52.230;5.702;2024-01-10T05:40:07;-5.20;99.90
23719;DHT22;43322;52.230;5.702;2024-01-10T05:42:34;-5.10;99.90
23719;DHT22;43322;52.230;5.702;2024-01-10T05:45:01;-5.20;99.90
23719;DHT22;43322;52.230;5.702;2024-01-10T05:47:28;-5.20;99.90
23719;DHT22;43322;52.230;5.702;2024-01-10T05:49:55;-5.20;99.90
23719;DHT22;43322;52.230;5.702;2024-01-10T05:52:23;-5.10;99.90
23719;DHT22;43322;52.230;5.702;2024-01-10T05:54:50;-5.10;99.90
23719;DHT22;43322;52.230;5.702;2024-01-10T05:57:16;-5.20;99.90
23719;DHT22;43322;52.230;5.702;2024-01-10T05:59:43;-5.30;99.90
23719;DHT22;43322;52.230;5.702;2024-01-10T06:02:10;-5.30;99.90
23719;DHT22;43322;52.230;5.702;2024-01-10T06:04:37;-4.70;99.90
23719;DHT22;43322;52.230;5.702;2024-01-10T06:07:03;-5.20;99.90
23719;DHT22;43322;52.230;5.702;2024-01-10T06:09:32;-5.20;99.90
23719;DHT22;43322;52.230;5.702;2024-01-10T06:11:59;-5.20;99.90
23719;DHT22;43322;52.230;5.702;2024-01-10T06:14:26;-5.10;99.90
23719;DHT22;43322;52.230;5.702;2024-01-10T06:16:52;-5.20;99.90
23719;DHT22;43322;52.230;5.702;2024-01-10T06:19:19;-5.10;99.90
23719;DHT22;43322;52.230;5.702;2024-01-10T06:21:47;-5.00;99.90
23719;DHT22;43322;52.230;5.702;2024-01-10T06:24:13;-5.00;99.90
23719;DHT22;43322;52.230;5.702;2024-01-10T06:26:41;-5.00;99.90
23719;DHT22;43322;52.230;5.702;2024-01-10T06:29:08;-5.00;99.90
23719;DHT22;43322;52.230;5.702;2024-01-10T06:31:35;-4.90;99.90
23719;DHT22;43322;52.230;5.702;2024-01-10T06:34:02;-4.90;99.90
23719;DHT22;43322;52.230;5.702;2024-01-10T06:36:28;-5.00;99.90
23719;DHT22;43322;52.230;5.702;2024-01-10T06:38:55;-5.00;99.90
23719;DHT22;43322;52.230;5.702;2024-01-10T06:41:22;-5.00;99.90
23719;DHT22;43322;52.230;5.702;2024-01-10T06:43:51;-4.90;99.90
23719;DHT22;43322;52.230;5.702;2024-01-10T06:46:19;-4.90;99.90
23719;DHT22;43322;52.230;5.702;2024-01-10T06:48:45;-5.00;99.90
23719;DHT22;43322;52.230;5.702;2024-01-10T06:51:12;-5.00;99.90
23719;DHT22;43322;52.230;5.702;2024-01-10T06:53:39;-5.10;99.90
23719;DHT22;43322;52.230;5.702;2024-01-10T06:56:07;-5.10;99.90
23719;DHT22;43322;52.230;5.702;2024-01-10T06:58:35;-5.10;99.90
23719;DHT22;43322;52.230;5.702;2024-01-10T07:01:03;-4.90;99.90
23719;DHT22;43322;52.230;5.702;2024-01-10T07:03:30;-4.90;99.90
23719;DHT22;43322;52.230;5.702;2024-01-10T07:05:57;-5.00;99.90
23719;DHT22;43322;52.230;5.702;2024-01-10T07:08:25;-4.50;99.90
23719;DHT22;43322;52.230;5.702;2024-01-10T07:10:52;-5.00;99.90
23719;DHT22;43322;52.230;5.702;2024-01-10T07:13:21;-4.90;99.90
23719;DHT22;43322;52.230;5.702;2024-01-10T07:15:47;-4.80;99.90
23719;DHT22;43322;52.230;5.702;2024-01-10T07:18:17;-4.80;99.90
23719;DHT22;43322;52.230;5.702;2024-01-10T07:20:44;-4.80;99.90
23719;DHT22;43322;52.230;5.702;2024-01-10T07:23:11;-4.90;99.90
23719;DHT22;43322;52.230;5.702;2024-01-10T07:25:38;-4.80;99.90
23719;DHT22;43322;52.230;5.702;2024-01-10T07:28:05;-4.80;99.90
23719;DHT22;43322;52.230;5.702;2024-01-10T07:30:32;-4.80;99.90
23719;DHT22;43322;52.230;5.702;2024-01-10T07:32:59;-4.90;99.90
23719;DHT22;43322;52.230;5.702;2024-01-10T07:35:27;-4.80;99.90
23719;DHT22;43322;52.230;5.702;2024-01-10T07:37:54;-4.60;99.90
23719;DHT22;43322;52.230;5.702;2024-01-10T07:40:21;-4.90;99.90
23719;DHT22;43322;52.230;5.702;2024-01-10T07:42:48;-5.00;99.90
23719;DHT22;43322;52.230;5.702;2024-01-10T07:45:15;-5.10;99.90
23719;DHT22;43322;52.230;5.702;2024-01-10T07:47:41;-5.10;99.90
23719;DHT22;43322;52.230;5.702;2024-01-10T07:50:09;-5.20;99.90
23719;DHT22;43322;52.230;5.702;2024-01-10T07:52:41;-5.20;99.90
23719;DHT22;43322;52.230;5.702;2024-01-10T07:55:09;-5.10;99.90
23719;DHT22;43322;52.230;5.702;2024-01-10T07:57:36;-5.00;99.90
23719;DHT22;43322;52.230;5.702;2024-01-10T08:00:03;-4.90;99.90
23719;DHT22;43322;52.230;5.702;2024-01-10T08:02:30;-4.90;99.90
23719;DHT22;43322;52.230;5.702;2024-01-10T08:04:59;-4.80;99.90
23719;DHT22;43322;52.230;5.702;2024-01-10T08:07:26;-4.90;99.90
23719;DHT22;43322;52.230;5.702;2024-01-10T08:09:54;-4.70;99.90
23719;DHT22;43322;52.230;5.702;2024-01-10T08:12:20;-4.70;99.90
23719;DHT22;43322;52.230;5.702;2024-01-10T08:14:47;-4.80;99.90
23719;DHT22;43322;52.230;5.702;2024-01-10T08:17:15;-4.70;99.90
23719;DHT22;43322;52.230;5.702;2024-01-10T08:19:42;-4.70;99.90
23719;DHT22;43322;52.230;5.702;2024-01-10T08:22:09;-4.70;99.90
23719;DHT22;43322;52.230;5.702;2024-01-10T08:24:35;-4.60;99.90
23719;DHT22;43322;52.230;5.702;2024-01-10T08:27:04;-4.50;99.90
23719;DHT22;43322;52.230;5.702;2024-01-10T08:29:31;-4.50;99.90
23719;DHT22;43322;52.230;5.702;2024-01-10T08:31:57;-4.40;99.90
23719;DHT22;43322;52.230;5.702;2024-01-10T08:34:24;-4.40;99.90
23719;DHT22;43322;52.230;5.702;2024-01-10T08:36:52;-4.30;99.90
23719;DHT22;43322;52.230;5.702;2024-01-10T08:39:19;-4.30;99.90
23719;DHT22;43322;52.230;5.702;2024-01-10T08:41:47;-3.40;99.90
23719;DHT22;43322;52.230;5.702;2024-01-10T08:44:15;-4.30;99.90
23719;DHT22;43322;52.230;5.702;2024-01-10T08:46:42;-4.30;99.90
23719;DHT22;43322;52.230;5.702;2024-01-10T08:49:09;-4.20;99.90
23719;DHT22;43322;52.230;5.702;2024-01-10T08:51:36;-4.10;99.90
23719;DHT22;43322;52.230;5.702;2024-01-10T08:54:03;-4.10;99.90
23719;DHT22;43322;52.230;5.702;2024-01-10T08:56:30;-4.10;99.90
23719;DHT22;43322;52.230;5.702;2024-01-10T08:58:57;-4.00;99.90
23719;DHT22;43322;52.230;5.702;2024-01-10T09:01:25;-4.00;99.90
23719;DHT22;43322;52.230;5.702;2024-01-10T09:03:51;-4.00;99.90
23719;DHT22;43322;52.230;5.702;2024-01-10T09:06:18;-3.90;99.90
23719;DHT22;43322;52.230;5.702;2024-01-10T09:08:46;-3.90;99.90
23719;DHT22;43322;52.230;5.702;2024-01-10T09:11:13;-3.90;99.90
23719;DHT22;43322;52.230;5.702;2024-01-10T09:13:40;-3.80;99.90
23719;DHT22;43322;52.230;5.702;2024-01-10T09:16:07;-3.70;99.90
23719;DHT22;43322;52.230;5.702;2024-01-10T09:18:36;-3.70;99.90
23719;DHT22;43322;52.230;5.702;2024-01-10T09:21:04;-3.60;99.90
23719;DHT22;43322;52.230;5.702;2024-01-10T09:23:31;-3.50;99.90
23719;DHT22;43322;52.230;5.702;2024-01-10T09:25:57;-3.50;99.90
23719;DHT22;43322;52.230;5.702;2024-01-10T09:28:24;-3.50;99.90
23719;DHT22;43322;52.230;5.702;2024-01-10T09:30:51;-3.40;99.90
23719;DHT22;43322;52.230;5.702;2024-01-10T09:33:19;-3.40;99.90
23719;DHT22;43322;52.230;5.702;2024-01-10T09:35:49;-3.40;99.90
23719;DHT22;43322;52.230;5.702;2024-01-10T09:38:16;-3.40;99.90
23719;DHT22;43322;52.230;5.702;2024-01-10T09:40:43;-3.30;99.90
23719;DHT22;43322;52.230;5.702;2024-01-10T09:43:10;-3.30;99.90
23719;DHT22;43322;52.230;5.702;2024-01-10T09:45:42;-3.20;99.90
23719;DHT22;43322;52.230;5.702;2024-01-10T09:48:13;-3.10;99.90
23719;DHT22;43322;52.230;5.702;2024-01-10T09:50:41;-3.00;99.90
23719;DHT22;43322;52.230;5.702;2024-01-10T09:53:13;-2.90;99.90
23719;DHT22;43322;52.230;5.702;2024-01-10T09:55:43;-2.70;99.90
23719;DHT22;43322;52.230;5.702;2024-01-10T09:58:11;-2.40;99.90
23719;DHT22;43322;52.230;5.702;2024-01-10T10:00:39;-2.10;99.90
23719;DHT22;43322;52.230;5.702;2024-01-10T10:03:07;-2.00;99.90
23719;DHT22;43322;52.230;5.702;2024-01-10T10:05:36;-2.10;97.60
23719;DHT22;43322;52.230;5.702;2024-01-10T10:08:06;-2.10;97.70
23719;DHT22;43322;52.230;5.702;2024-01-10T10:10:36;-2.10;99.30
23719;DHT22;43322;52.230;5.702;2024-01-10T10:13:08;-2.20;96.70
23719;DHT22;43322;52.230;5.702;2024-01-10T10:15:36;-2.30;96.40
23719;DHT22;43322;52.230;5.702;2024-01-10T10:18:04;-2.30;98.20
23719;DHT22;43322;52.230;5.702;2024-01-10T10:20:31;-2.10;98.50
23719;DHT22;43322;52.230;5.702;2024-01-10T10:23:00;-1.90;97.80
23719;DHT22;43322;52.230;5.702;2024-01-10T10:25:29;-1.70;97.70
23719;DHT22;43322;52.230;5.702;2024-01-10T10:27:59;-1.60;95.70
23719;DHT22;43322;52.230;5.702;2024-01-10T10:30:26;-1.60;94.70
23719;DHT22;43322;52.230;5.702;2024-01-10T10:32:53;-1.50;94.70
23719;DHT22;43322;52.230;5.702;2024-01-10T10:35:20;-1.40;91.90
23719;DHT22;43322;52.230;5.702;2024-01-10T10:37:48;-1.10;91.60
23719;DHT22;43322;52.230;5.702;2024-01-10T10:40:16;-0.60;87.90
23719;DHT22;43322;52.230;5.702;2024-01-10T10:42:44;-0.10;78.90
23719;DHT22;43322;52.230;5.702;2024-01-10T10:45:15;0.50;78.80
23719;DHT22;43322;52.230;5.702;2024-01-10T10:47:44;1.20;76.40
23719;DHT22;43322;52.230;5.702;2024-01-10T10:50:13;1.50;71.60
23719;DHT22;43322;52.230;5.702;2024-01-10T10:52:45;1.70;65.70
23719;DHT22;43322;52.230;5.702;2024-01-10T10:55:14;1.60;62.30
23719;DHT22;43322;52.230;5.702;2024-01-10T10:57:43;1.70;60.20
23719;DHT22;43322;52.230;5.702;2024-01-10T11:00:11;1.90;56.70
23719;DHT22;43322;52.230;5.702;2024-01-10T11:02:42;2.10;55.90
23719;DHT22;43322;52.230;5.702;2024-01-10T11:05:10;2.50;53.10
23719;DHT22;43322;52.230;5.702;2024-01-10T11:07:37;2.80;47.80
23719;DHT22;43322;52.230;5.702;2024-01-10T11:10:08;3.40;48.40
23719;DHT22;43322;52.230;5.702;2024-01-10T11:12:49;4.20;40.70
23719;DHT22;43322;52.230;5.702;2024-01-10T11:15:29;5.10;33.90
23719;DHT22;43322;52.230;5.702;2024-01-10T11:18:09;6.00;26.50
23719;DHT22;43322;52.230;5.702;2024-01-10T11:20:51;6.60;22.30
23719;DHT22;43322;52.230;5.702;2024-01-10T11:23:38;7.10;20.70
23719;DHT22;43322;52.230;5.702;2024-01-10T11:26:07;7.40;18.80
23719;DHT22;43322;52.230;5.702;2024-01-10T11:28:36;7.80;15.60
23719;DHT22;43322;52.230;5.702;2024-01-10T11:31:03;7.90;17.80
23719;DHT22;43322;52.230;5.702;2024-01-10T11:33:34;8.60;12.90
23719;DHT22;43322;52.230;5.702;2024-01-10T11:36:09;9.30;11.70
23719;DHT22;43322;52.230;5.702;2024-01-10T11:38:42;9.30;9.20
23719;DHT22;43322;52.230;5.702;2024-01-10T11:41:21;9.40;8.10
23719;DHT22;43322;52.230;5.702;2024-01-10T11:46:51;7.40;8.00
23719;DHT22;43322;52.230;5.702;2024-01-10T11:49:21;5.80;9.40
23719;DHT22;43322;52.230;5.702;2024-01-10T11:51:49;4.50;11.50
23719;DHT22;43322;52.230;5.702;2024-01-10T11:54:37;3.50;14.80
23719;DHT22;43322;52.230;5.702;2024-01-10T11:57:11;2.60;19.10
23719;DHT22;43322;52.230;5.702;2024-01-10T11:59:39;1.80;26.30
23719;DHT22;43322;52.230;5.702;2024-01-10T12:02:07;1.40;31.60
23719;DHT22;43322;52.230;5.702;2024-01-10T12:04:36;1.20;36.70
23719;DHT22;43322;52.230;5.702;2024-01-10T12:07:03;0.90;37.90
23719;DHT22;43322;52.230;5.702;2024-01-10T12:09:31;0.90;38.20
23719;DHT22;43322;52.230;5.702;2024-01-10T12:11:58;0.80;42.00
23719;DHT22;43322;52.230;5.702;2024-01-10T12:14:25;0.70;40.00
23719;DHT22;43322;52.230;5.702;2024-01-10T12:16:52;0.60;42.40
23719;DHT22;43322;52.230;5.702;2024-01-10T12:19:18;0.40;40.70
23719;DHT22;43322;52.230;5.702;2024-01-10T12:21:48;0.10;43.20
23719;DHT22;43322;52.230;5.702;2024-01-10T12:24:15;0.10;46.90
23719;DHT22;43322;52.230;5.702;2024-01-10T12:26:46;0.10;46.10
23719;DHT22;43322;52.230;5.702;2024-01-10T12:29:13;0.10;45.10
23719;DHT22;43322;52.230;5.702;2024-01-10T12:31:39;0.10;45.90
23719;DHT22;43322;52.230;5.702;2024-01-10T12:34:07;0.10;44.50
23719;DHT22;43322;52.230;5.702;2024-01-10T12:36:36;0.10;46.30
23719;DHT22;43322;52.230;5.702;2024-01-10T12:39:04;0.10;49.00
23719;DHT22;43322;52.230;5.702;2024-01-10T12:41:33;0.20;47.30
23719;DHT22;43322;52.230;5.702;2024-01-10T12:44:01;0.00;50.60
23719;DHT22;43322;52.230;5.702;2024-01-10T12:46:29;0.00;48.20
23719;DHT22;43322;52.230;5.702;2024-01-10T12:49:00;-0.10;51.60
23719;DHT22;43322;52.230;5.702;2024-01-10T12:51:28;0.00;51.20
23719;DHT22;43322;52.230;5.702;2024-01-10T12:53:56;0.00;53.50
23719;DHT22;43322;52.230;5.702;2024-01-10T12:56:25;0.00;53.00
23719;DHT22;43322;52.230;5.702;2024-01-10T12:58:53;0.10;50.50
23719;DHT22;43322;52.230;5.702;2024-01-10T13:01:20;0.10;53.00
23719;DHT22;43322;52.230;5.702;2024-01-10T13:03:47;0.00;53.10
23719;DHT22;43322;52.230;5.702;2024-01-10T13:06:14;0.00;52.00
23719;DHT22;43322;52.230;5.702;2024-01-10T13:08:41;0.10;52.30
23719;DHT22;43322;52.230;5.702;2024-01-10T13:11:08;0.00;51.80
23719;DHT22;43322;52.230;5.702;2024-01-10T13:13:37;-0.10;52.60
23719;DHT22;43322;52.230;5.702;2024-01-10T13:16:04;0.00;51.80
23719;DHT22;43322;52.230;5.702;2024-01-10T13:18:31;0.00;52.70
23719;DHT22;43322;52.230;5.702;2024-01-10T13:20:59;0.00;55.80
23719;DHT22;43322;52.230;5.702;2024-01-10T13:23:26;0.00;53.30
23719;DHT22;43322;52.230;5.702;2024-01-10T13:25:52;0.00;53.20
23719;DHT22;43322;52.230;5.702;2024-01-10T13:28:19;0.00;51.60
23719;DHT22;43322;52.230;5.702;2024-01-10T13:30:47;0.10;52.60
23719;DHT22;43322;52.230;5.702;2024-01-10T13:33:16;0.30;51.90
23719;DHT22;43322;52.230;5.702;2024-01-10T13:35:44;0.20;49.20
23719;DHT22;43322;52.230;5.702;2024-01-10T13:38:11;0.20;48.90
23719;DHT22;43322;52.230;5.702;2024-01-10T13:40:37;0.20;48.50
23719;DHT22;43322;52.230;5.702;2024-01-10T13:43:04;0.10;53.40
23719;DHT22;43322;52.230;5.702;2024-01-10T13:45:31;0.10;52.80
23719;DHT22;43322;52.230;5.702;2024-01-10T13:47:59;0.00;54.30
23719;DHT22;43322;52.230;5.702;2024-01-10T13:50:26;0.10;53.60
23719;DHT22;43322;52.230;5.702;2024-01-10T13:52:55;0.00;53.30
23719;DHT22;43322;52.230;5.702;2024-01-10T13:55:22;0.10;51.00
23719;DHT22;43322;52.230;5.702;2024-01-10T13:57:50;0.20;47.20
23719;DHT22;43322;52.230;5.702;2024-01-10T14:00:19;0.20;49.10
23719;DHT22;43322;52.230;5.702;2024-01-10T14:02:46;0.10;49.50
23719;DHT22;43322;52.230;5.702;2024-01-10T14:05:14;0.00;51.30
23719;DHT22;43322;52.230;5.702;2024-01-10T14:07:41;0.00;51.10
23719;DHT22;43322;52.230;5.702;2024-01-10T14:10:10;0.00;52.90
23719;DHT22;43322;52.230;5.702;2024-01-10T14:12:38;0.00;52.80
23719;DHT22;43322;52.230;5.702;2024-01-10T14:15:05;-0.10;52.60
23719;DHT22;43322;52.230;5.702;2024-01-10T14:17:33;0.20;50.40
23719;DHT22;43322;52.230;5.702;2024-01-10T14:20:00;0.40;50.00
23719;DHT22;43322;52.230;5.702;2024-01-10T14:22:28;0.90;47.10
23719;DHT22;43322;52.230;5.702;2024-01-10T14:24:55;1.20;43.90
23719;DHT22;43322;52.230;5.702;2024-01-10T14:27:22;1.30;39.80
23719;DHT22;43322;52.230;5.702;2024-01-10T14:29:50;1.30;40.10
23719;DHT22;43322;52.230;5.702;2024-01-10T14:32:17;1.20;39.40
23719;DHT22;43322;52.230;5.702;2024-01-10T14:34:43;1.30;41.20
23719;DHT22;43322;52.230;5.702;2024-01-10T14:37:11;1.60;42.30
23719;DHT22;43322;52.230;5.702;2024-01-10T14:39:40;1.70;39.30
23719;DHT22;43322;52.230;5.702;2024-01-10T14:42:07;1.30;39.20
23719;DHT22;43322;52.230;5.702;2024-01-10T14:44:34;0.90;40.30
23719;DHT22;43322;52.230;5.702;2024-01-10T14:47:01;0.80;41.80
23719;DHT22;43322;52.230;5.702;2024-01-10T14:49:29;0.40;43.90
23719;DHT22;43322;52.230;5.702;2024-01-10T14:51:56;0.40;47.70
23719;DHT22;43322;52.230;5.702;2024-01-10T14:54:22;0.40;46.40
23719;DHT22;43322;52.230;5.702;2024-01-10T14:56:51;0.30;48.30
23719;DHT22;43322;52.230;5.702;2024-01-10T14:59:18;0.20;46.60
23719;DHT22;43322;52.230;5.702;2024-01-10T15:01:45;0.10;52.80
23719;DHT22;43322;52.230;5.702;2024-01-10T15:04:13;0.10;50.20
23719;DHT22;43322;52.230;5.702;2024-01-10T15:06:44;0.00;53.40
23719;DHT22;43322;52.230;5.702;2024-01-10T15:09:11;-0.10;54.00
23719;DHT22;43322;52.230;5.702;2024-01-10T15:11:38;-0.20;55.50
23719;DHT22;43322;52.230;5.702;2024-01-10T15:14:07;-0.30;59.20
23719;DHT22;43322;52.230;5.702;2024-01-10T15:16:34;-0.40;59.40
23719;DHT22;43322;52.230;5.702;2024-01-10T15:19:01;-0.50;60.00
23719;DHT22;43322;52.230;5.702;2024-01-10T15:21:28;-0.50;59.10
23719;DHT22;43322;52.230;5.702;2024-01-10T15:23:55;-0.40;58.50
23719;DHT22;43322;52.230;5.702;2024-01-10T15:26:22;-0.50;59.00
23719;DHT22;43322;52.230;5.702;2024-01-10T15:28:49;-0.50;58.80
23719;DHT22;43322;52.230;5.702;2024-01-10T15:31:18;-0.50;57.50
23719;DHT22;43322;52.230;5.702;2024-01-10T15:33:45;-0.60;58.20
23719;DHT22;43322;52.230;5.702;2024-01-10T15:36:12;-0.50;60.60
23719;DHT22;43322;52.230;5.702;2024-01-10T15:38:40;-0.50;58.20
23719;DHT22;43322;52.230;5.702;2024-01-10T15:41:07;-0.70;62.00
23719;DHT22;43322;52.230;5.702;2024-01-10T15:43:34;-0.60;62.40